Time;durP1;ratioP1;P1;durP2;ratioP2;P2;SDS_P1;SDS_P2;PMS_P1;PMS_P2;Temp;Humidity;BMP_temperature;BMP_pressure;BME280_temperature;BME280_humidity;BME280_pressure;Samples;Min_cycle;Max_cycle;Signal;HPM_P1;HPM_P2
2023/05/04 00:01:11;;;;;;;0.00;0.00;;;;;;;9.80;67.62;100638.72;6187441;22;20012;-76
2023/05/04 00:03:37;;;;;;;0.00;0.00;;;;;;;9.80;68.01;100633.25;6243750;22;20014;-75
2023/05/04 00:06:02;;;;;;;0.00;0.00;;;;;;;9.87;68.48;100625.69;6266580;22;20008;-76
2023/05/04 00:08:28;;;;;;;0.00;0.00;;;;;;;9.78;68.12;100605.38;6217657;22;20050;-75
2023/05/04 00:10:54;;;;;;;0.00;0.00;;;;;;;9.78;68.10;100605.38;6240084;22;20091;-75
2023/05/04 00:13:20;;;;;;;0.00;0.00;;;;;;;9.66;68.73;100607.44;6242882;22;20423;-74
2023/05/04 00:15:46;;;;;;;0.00;0.00;;;;;;;9.56;68.52;100603.50;6219188;22;20054;-75
2023/05/04 00:18:11;;;;;;;0.00;0.00;;;;;;;9.56;69.05;100608.97;6214996;22;20485;-75
2023/05/04 00:20:37;;;;;;;0.00;0.00;;;;;;;9.59;69.26;100608.44;6218349;22;20008;-74
2023/05/04 00:23:02;;;;;;;0.00;0.00;;;;;;;9.59;69.09;100594.81;6216218;22;20434;-75
2023/05/04 00:25:27;;;;;;;0.00;0.00;;;;;;;9.49;69.81;100580.19;6193172;22;20010;-75
2023/05/04 00:27:53;;;;;;;0.00;0.00;;;;;;;9.51;69.62;100584.31;6217970;22;20060;-73
2023/05/04 00:30:19;;;;;;;0.00;0.00;;;;;;;9.36;70.11;100573.19;6216209;22;20061;-74
2023/05/04 00:32:45;;;;;;;0.00;0.00;;;;;;;9.29;70.24;100580.75;6245195;22;20437;-75
2023/05/04 00:35:11;;;;;;;0.00;0.00;;;;;;;9.05;70.46;100557.28;6186103;22;20007;-75
2023/05/04 00:37:39;;;;;;;0.00;0.00;;;;;;;9.07;71.09;100573.41;6195067;22;20518;-76
2023/05/04 00:40:05;;;;;;;0.00;0.00;;;;;;;8.94;71.21;100557.41;6268765;22;20229;-75
2023/05/04 00:42:30;;;;;;;0.00;0.00;;;;;;;8.85;71.64;100555.09;6238628;22;20034;-76
2023/05/04 00:44:56;;;;;;;0.00;0.00;;;;;;;8.68;71.82;100548.84;6219160;22;20000;-76
2023/05/04 00:47:21;;;;;;;0.03;0.03;;;;;;;8.52;72.96;100551.34;6238661;22;20007;-74
2023/05/04 00:49:47;;;;;;;0.00;0.00;;;;;;;8.52;73.36;100551.34;6270006;22;20008;-75
2023/05/04 00:52:14;;;;;;;0.00;0.00;;;;;;;8.46;73.14;100549.63;6240503;22;20425;-75
2023/05/04 00:54:45;;;;;;;0.00;0.00;;;;;;;8.38;73.42;100537.22;6242733;22;20019;-75
2023/05/04 00:57:11;;;;;;;0.00;0.00;;;;;;;8.33;73.55;100541.75;6244759;22;20046;-74
2023/05/04 00:59:39;;;;;;;0.00;0.00;;;;;;;8.25;74.13;100544.88;6264543;22;20004;-75
2023/05/04 01:02:05;;;;;;;0.10;0.10;;;;;;;8.25;74.30;100539.44;6218639;22;20015;-75
2023/05/04 01:04:30;;;;;;;0.00;0.00;;;;;;;8.18;74.69;100524.09;6237628;22;20094;-75
2023/05/04 01:07:33;;;;;;;0.00;0.00;;;;;;;8.27;75.26;100531.84;6243740;22;21024;-75
2023/05/04 01:10:16;;;;;;;0.00;0.00;;;;;;;8.17;74.67;100519.69;6241164;22;20015;-76
2023/05/04 01:12:58;;;;;;;0.00;0.00;;;;;;;8.11;75.09;100522.59;6267661;22;20010;-76
2023/05/04 01:15:25;;;;;;;0.00;0.00;;;;;;;8.13;75.43;100532.19;6244098;22;20011;-75
2023/05/04 01:17:51;;;;;;;0.03;0.03;;;;;;;8.07;75.23;100511.38;6215360;22;20038;-74
2023/05/04 01:20:16;;;;;;;0.00;0.00;;;;;;;8.08;75.50;100518.47;6219160;22;19999;-74
2023/05/04 01:22:42;;;;;;;0.00;0.00;;;;;;;8.21;75.46;100511.88;6243306;22;20549;-76
2023/05/04 01:25:08;;;;;;;0.00;0.00;;;;;;;8.30;75.58;100515.81;6268073;22;20000;-75
2023/05/04 01:27:41;;;;;;;0.00;0.00;;;;;;;8.36;75.16;100514.00;6194542;22;20027;-75
2023/05/04 01:30:18;;;;;;;0.00;0.00;;;;;;;8.28;75.40;100506.25;6266954;22;20004;-75
2023/05/04 01:32:44;;;;;;;0.00;0.00;;;;;;;8.26;74.99;100502.94;6271445;22;20028;-76
2023/05/04 01:35:11;;;;;;;0.00;0.00;;;;;;;8.27;75.52;100502.69;6267463;22;19996;-75
2023/05/04 01:37:43;;;;;;;0.00;0.00;;;;;;;8.25;75.57;100495.84;6243721;22;20330;-74
2023/05/04 01:40:09;;;;;;;0.00;0.00;;;;;;;8.26;75.95;100502.94;6208994;22;20061;-75
2023/05/04 01:42:35;;;;;;;0.00;0.00;;;;;;;8.16;76.09;100498.16;6185100;23;20091;-75
2023/05/04 01:45:02;;;;;;;0.00;0.00;;;;;;;8.11;76.09;100498.91;6188046;23;20012;-75
2023/05/04 01:47:27;;;;;;;0.00;0.00;;;;;;;8.09;77.06;100497.50;6185868;23;20760;-74
2023/05/04 01:49:53;;;;;;;0.00;0.00;;;;;;;8.08;76.80;100488.50;6215393;23;20008;-75
2023/05/04 01:52:18;;;;;;;0.00;0.00;;;;;;;8.08;76.54;100485.78;6183104;23;20066;-75
2023/05/04 01:54:43;;;;;;;0.00;0.00;;;;;;;8.07;77.21;100495.03;6211087;23;20012;-75
2023/05/04 01:57:11;;;;;;;0.00;0.00;;;;;;;8.02;77.52;100492.22;6241319;23;20000;-74
2023/05/04 01:59:36;;;;;;;0.00;0.00;;;;;;;8.07;78.09;100495.03;6183231;23;20366;-75
2023/05/04 02:02:02;;;;;;;0.00;0.00;;;;;;;8.19;77.21;100495.78;6215114;23;20004;-74
2023/05/04 02:04:27;;;;;;;0.00;0.00;;;;;;;8.20;77.71;100478.34;6179624;23;20019;-74
2023/05/04 02:06:53;;;;;;;0.00;0.00;;;;;;;8.31;77.71;100478.50;6213947;23;20011;-74
2023/05/04 02:09:18;;;;;;;0.00;0.00;;;;;;;8.35;76.98;100490.56;6185395;23;20016;-75
2023/05/04 02:11:44;;;;;;;0.00;0.00;;;;;;;8.29;77.16;100481.47;6188258;23;20343;-76
2023/05/04 02:14:09;;;;;;;0.00;0.00;;;;;;;8.18;77.45;100469.59;6215439;23;20008;-76
2023/05/04 02:16:34;;;;;;;0.00;0.00;;;;;;;8.13;78.14;100469.53;6210874;23;20011;-76
2023/05/04 02:19:00;;;;;;;0.00;0.00;;;;;;;8.12;78.02;100470.59;6162103;23;20091;-76
2023/05/04 02:21:25;;;;;;;0.00;0.00;;;;;;;8.14;77.57;100463.00;6185639;23;20119;-76
2023/05/04 02:23:51;;;;;;;0.00;0.00;;;;;;;8.10;78.06;100450.94;6190076;23;20411;-75
2023/05/04 02:26:16;;;;;;;0.00;0.00;;;;;;;8.18;78.49;100458.72;6161301;23;20054;-74
2023/05/04 02:28:42;;;;;;;0.00;0.00;;;;;;;8.23;78.56;100465.31;6185133;23;20004;-73
2023/05/04 02:31:07;;;;;;;0.00;0.00;;;;;;;8.16;78.57;100463.59;6191573;23;20107;-74
2023/05/04 02:33:32;;;;;;;0.00;0.00;;;;;;;8.14;78.36;100452.09;6206164;23;20083;-74
2023/05/04 02:35:58;;;;;;;0.00;0.00;;;;;;;8.26;78.28;100464.81;6188422;23;20103;-75
2023/05/04 02:38:25;;;;;;;0.00;0.00;;;;;;;8.20;78.98;100456.53;6209066;23;20011;-74
2023/05/04 02:40:50;;;;;;;0.00;0.00;;;;;;;8.23;78.35;100449.78;6185894;23;20027;-73
2023/05/04 02:43:16;;;;;;;0.00;0.00;;;;;;;8.28;78.07;100451.75;6212770;23;20004;-74
2023/05/04 02:45:41;;;;;;;0.00;0.00;;;;;;;8.32;78.92;100447.47;6211054;23;20004;-74
2023/05/04 02:48:06;;;;;;;0.00;0.00;;;;;;;8.41;78.60;100445.97;6189130;23;20015;-74
2023/05/04 02:50:32;;;;;;;0.00;0.00;;;;;;;8.38;78.12;100443.72;6159919;23;20016;-74
2023/05/04 02:52:57;;;;;;;0.00;0.00;;;;;;;8.39;78.67;100448.09;6189558;23;20015;-74
2023/05/04 02:55:23;;;;;;;0.00;0.00;;;;;;;8.34;78.88;100450.78;6212861;23;20011;-73
2023/05/04 02:57:48;;;;;;;0.00;0.00;;;;;;;8.24;78.77;100429.66;6210146;23;20095;-74
2023/05/04 03:00:14;;;;;;;0.00;0.00;;;;;;;8.29;79.01;100440.59;6214225;23;20091;-74
2023/05/04 03:02:39;;;;;;;0.00;0.00;;;;;;;8.27;78.82;100439.22;6185809;23;20003;-74
2023/05/04 03:05:05;;;;;;;0.00;0.00;;;;;;;8.27;78.95;100433.78;6161292;23;20099;-73
2023/05/04 03:07:30;;;;;;;0.00;0.00;;;;;;;8.32;78.84;100420.22;6186259;23;20011;-74
2023/05/04 03:09:56;;;;;;;0.00;0.00;;;;;;;8.20;79.36;100402.06;6185735;23;20008;-74
2023/05/04 03:12:21;;;;;;;0.03;0.03;;;;;;;8.27;79.57;100395.63;6188683;23;20004;-74
2023/05/04 03:14:47;;;;;;;0.00;0.00;;;;;;;8.31;79.22;100397.59;6207768;23;20628;-74
2023/05/04 03:17:12;;;;;;;0.00;0.00;;;;;;;8.28;79.15;100394.53;6213628;23;20008;-74
2023/05/04 03:19:38;;;;;;;0.00;0.00;;;;;;;8.22;79.23;100388.22;6209060;23;20517;-74
2023/05/04 03:22:03;;;;;;;0.00;0.00;;;;;;;8.25;79.46;100381.41;6214468;23;20035;-74
2023/05/04 03:24:28;;;;;;;0.00;0.00;;;;;;;8.31;79.13;100374.97;6237344;23;20395;-76
2023/05/04 03:26:54;;;;;;;0.00;0.00;;;;;;;8.38;79.46;100375.59;6210679;23;20000;-75
2023/05/04 03:29:19;;;;;;;0.10;0.10;;;;;;;8.36;79.32;100366.88;6187587;23;20012;-74
2023/05/04 03:31:45;;;;;;;0.00;0.00;;;;;;;8.44;79.53;100358.28;6158114;23;20012;-75
2023/05/04 03:34:11;;;;;;;0.00;0.00;;;;;;;8.48;79.80;100353.97;6214156;23;20016;-75
2023/05/04 03:36:37;;;;;;;0.00;0.00;;;;;;;8.60;79.50;100342.09;6209149;23;20012;-75
2023/05/04 03:39:02;;;;;;;0.00;0.00;;;;;;;8.70;78.95;100350.41;6211317;23;20012;-74
2023/05/04 03:41:28;;;;;;;0.00;0.00;;;;;;;8.74;79.04;100335.19;6238352;22;20104;-74
2023/05/04 03:43:53;;;;;;;0.00;0.00;;;;;;;9.02;78.48;100336.00;6209532;23;20042;-75
2023/05/04 03:46:19;;;;;;;0.10;0.10;;;;;;;9.02;78.55;100338.75;6185301;23;20484;-74
2023/05/04 03:48:44;;;;;;;0.00;0.00;;;;;;;9.09;77.92;100320.25;6212173;23;20012;-76
2023/05/04 03:51:09;;;;;;;0.00;0.00;;;;;;;9.14;77.54;100317.59;6162096;23;20054;-75
2023/05/04 03:53:35;;;;;;;0.00;0.00;;;;;;;9.21;78.06;100329.13;6212112;23;20019;-74
2023/05/04 03:56:02;;;;;;;0.00;0.00;;;;;;;9.19;78.21;100330.47;6241722;23;20423;-74
2023/05/04 03:58:27;;;;;;;0.00;0.00;;;;;;;9.12;78.31;100303.38;6209087;23;20015;-74
2023/05/04 04:01:10;;;;;;;0.00;0.00;;;;;;;9.18;78.00;100315.97;6240068;23;20008;-75
2023/05/04 04:03:35;;;;;;;0.00;0.00;;;;;;;9.17;78.47;100308.91;6233233;23;20008;-73
2023/05/04 04:06:04;;;;;;;0.00;0.00;;;;;;;9.21;77.87;100323.66;6210502;23;20005;-73
2023/05/04 04:08:30;;;;;;;0.00;0.00;;;;;;;9.17;77.70;100314.34;6233373;23;20082;-74
2023/05/04 04:10:56;;;;;;;0.00;0.00;;;;;;;9.09;77.96;100309.34;6188025;23;20008;-74
2023/05/04 04:13:22;;;;;;;0.00;0.00;;;;;;;9.02;78.07;100300.56;6179275;23;20004;-74
2023/05/04 04:15:47;;;;;;;0.00;0.00;;;;;;;8.93;77.97;100288.47;6238039;23;20019;-74
2023/05/04 04:18:13;;;;;;;0.00;0.00;;;;;;;8.90;78.37;100292.53;6158365;23;20103;-75
2023/05/04 04:20:38;;;;;;;0.00;0.00;;;;;;;8.92;78.94;100293.09;6210713;23;20323;-75
2023/05/04 04:23:03;;;;;;;0.00;0.00;;;;;;;8.88;79.10;100287.34;6211424;23;20054;-75
2023/05/04 04:25:29;;;;;;;0.00;0.00;;;;;;;8.99;78.26;100280.06;6184363;23;20008;-75
2023/05/04 04:27:55;;;;;;;0.00;0.00;;;;;;;9.05;78.35;100286.41;6213590;23;20308;-75
2023/05/04 04:30:21;;;;;;;0.00;0.00;;;;;;;8.98;77.98;100281.19;6205129;23;20008;-74
2023/05/04 04:32:46;;;;;;;0.00;0.00;;;;;;;8.89;78.81;100272.63;6214233;23;20091;-75
2023/05/04 04:35:13;;;;;;;0.00;0.00;;;;;;;8.94;78.23;100268.31;6181108;23;20639;-75
2023/05/04 04:37:39;;;;;;;0.00;0.00;;;;;;;8.95;78.67;100264.50;6210392;23;20011;-75
2023/05/04 04:40:06;;;;;;;0.00;0.00;;;;;;;8.93;78.54;100263.94;6250913;22;20050;-75
2023/05/04 04:42:32;;;;;;;0.00;0.00;;;;;;;9.04;78.03;100266.50;6211396;22;20415;-75
2023/05/04 04:44:58;;;;;;;0.00;0.00;;;;;;;9.04;78.55;100273.88;6270330;22;20415;-75
2023/05/04 04:47:23;;;;;;;0.00;0.00;;;;;;;9.01;78.60;100269.75;6209830;22;20143;-74
2023/05/04 04:49:49;;;;;;;0.00;0.00;;;;;;;8.98;78.24;100253.91;6218075;22;20415;-77
2023/05/04 04:52:14;;;;;;;0.00;0.00;;;;;;;8.99;78.38;100249.25;6267044;22;20329;-75
2023/05/04 04:54:40;;;;;;;0.00;0.00;;;;;;;9.04;78.50;100261.03;6216556;22;20011;-75
2023/05/04 04:57:05;;;;;;;0.00;0.00;;;;;;;9.09;77.91;100254.78;6272627;22;20027;-75
2023/05/04 04:59:31;;;;;;;0.00;0.00;;;;;;;9.14;78.09;100245.81;6237299;22;20339;-75
2023/05/04 05:01:56;;;;;;;0.00;0.00;;;;;;;9.11;78.41;100229.97;6246387;22;20082;-74
2023/05/04 05:04:22;;;;;;;0.00;0.00;;;;;;;9.23;77.73;100245.09;6210055;22;20812;-74
2023/05/04 05:06:48;;;;;;;0.00;0.00;;;;;;;9.28;77.96;100240.75;6244787;22;20018;-74
2023/05/04 05:09:14;;;;;;;0.00;0.00;;;;;;;9.35;77.76;100236.72;6216438;22;20012;-77
2023/05/04 05:11:39;;;;;;;0.00;0.00;;;;;;;9.44;77.36;100237.03;6240285;22;20019;-76
2023/05/04 05:14:08;;;;;;;0.00;0.00;;;;;;;9.57;77.49;100227.56;6243924;22;20007;-75
2023/05/04 05:16:33;;;;;;;0.00;0.00;;;;;;;9.80;77.08;100226.34;6212682;22;20057;-74
2023/05/04 05:18:59;;;;;;;0.00;0.00;;;;;;;9.92;76.19;100220.66;6273782;22;20114;-75
2023/05/04 05:21:24;;;;;;;0.00;0.00;;;;;;;10.00;76.49;100208.38;6208612;22;20072;-75
2023/05/04 05:23:50;;;;;;;0.00;0.00;;;;;;;10.10;75.58;100192.03;6272822;22;20035;-74
2023/05/04 05:26:15;;;;;;;0.00;0.00;;;;;;;10.24;75.25;100198.63;6213136;22;20011;-75
2023/05/04 05:28:41;;;;;;;0.00;0.00;;;;;;;10.53;75.43;100208.28;6240833;22;20011;-75
2023/05/04 05:31:06;;;;;;;0.00;0.00;;;;;;;10.63;74.59;100203.66;6246207;22;20031;-74
2023/05/04 05:33:32;;;;;;;0.00;0.00;;;;;;;10.63;73.85;100200.09;6236444;22;19995;-75
2023/05/04 05:35:57;;;;;;;0.00;0.00;;;;;;;10.61;73.94;100205.00;6245810;22;20003;-74
2023/05/04 05:38:23;;;;;;;0.00;0.00;;;;;;;10.71;73.94;100190.53;6235991;22;20194;-74
2023/05/04 05:40:48;;;;;;;0.00;0.00;;;;;;;10.74;73.49;100196.28;6235804;22;20439;-74
2023/05/04 05:43:14;;;;;;;0.00;0.00;;;;;;;10.75;73.28;100186.16;6234800;23;20004;-75
2023/05/04 05:45:39;;;;;;;0.00;0.00;;;;;;;10.91;73.24;100178.78;6236262;23;20011;-75
2023/05/04 05:48:05;;;;;;;0.00;0.00;;;;;;;11.03;72.77;100186.72;6239425;23;20015;-74
2023/05/04 05:50:30;;;;;;;0.00;0.00;;;;;;;11.12;72.47;100185.06;6203900;23;20027;-75
2023/05/04 05:52:56;;;;;;;0.00;0.00;;;;;;;11.34;72.03;100188.28;6240114;22;20000;-76
2023/05/04 05:55:21;;;;;;;0.00;0.00;;;;;;;11.47;71.18;100186.09;6231034;23;20012;-76
2023/05/04 05:57:47;;;;;;;0.00;0.00;;;;;;;11.59;70.61;100183.84;6238612;23;20043;-74
2023/05/04 06:00:12;;;;;;;0.00;0.00;;;;;;;11.67;70.38;100164.09;6207797;23;20435;-76
2023/05/04 06:02:38;;;;;;;0.00;0.00;;;;;;;11.87;70.49;100181.56;6231954;23;20642;-75
2023/05/04 06:05:04;;;;;;;0.00;0.00;;;;;;;11.90;69.55;100178.28;6235594;23;20506;-74
2023/05/04 06:07:29;;;;;;;0.00;0.00;;;;;;;11.94;69.23;100181.28;6210240;23;20004;-74
2023/05/04 06:09:57;;;;;;;0.00;0.00;;;;;;;11.92;69.60;100167.03;6211689;23;20667;-77
2023/05/04 06:12:22;;;;;;;0.00;0.00;;;;;;;11.61;69.06;100170.72;6214406;23;20004;-76
2023/05/04 06:14:48;;;;;;;0.00;0.00;;;;;;;11.34;69.60;100171.84;6210508;23;20066;-79
2023/05/04 06:17:13;;;;;;;0.00;0.00;;;;;;;11.25;70.06;100189.97;6211966;23;20056;-79
2023/05/04 06:19:41;;;;;;;0.00;0.00;;;;;;;11.11;70.25;100184.25;6235610;23;20311;-80
2023/05/04 06:22:07;;;;;;;0.00;0.00;;;;;;;11.06;70.46;100180.69;6241966;23;20003;-77
2023/05/04 06:24:32;;;;;;;0.00;0.00;;;;;;;11.12;70.78;100168.63;6234417;22;20732;-77
2023/05/04 06:26:58;;;;;;;0.00;0.00;;;;;;;11.09;70.90;100156.31;6213304;23;20079;-77
2023/05/04 06:29:24;;;;;;;0.00;0.00;;;;;;;11.20;70.50;100154.41;6214819;23;20427;-77
2023/05/04 06:31:50;;;;;;;0.00;0.00;;;;;;;11.34;70.41;100149.97;6234852;22;20004;-76
2023/05/04 06:34:16;;;;;;;0.00;0.00;;;;;;;11.41;70.79;100159.81;6214809;23;20004;-77
2023/05/04 06:36:42;;;;;;;0.00;0.00;;;;;;;11.50;70.19;100141.72;6236725;23;20119;-78
2023/05/04 06:39:07;;;;;;;0.00;0.00;;;;;;;11.55;69.95;100138.13;6217537;23;20007;-77
2023/05/04 06:41:33;;;;;;;0.00;0.00;;;;;;;11.64;69.60;100131.81;6212708;23;20024;-76
2023/05/04 06:44:03;;;;;;;0.00;0.00;;;;;;;11.60;69.59;100122.50;6161764;23;20054;-77
2023/05/04 06:46:28;;;;;;;0.00;0.00;;;;;;;11.75;69.29;100131.75;6188635;23;20090;-77
2023/05/04 06:48:54;;;;;;;0.00;0.00;;;;;;;11.87;68.85;100118.53;6182231;23;20012;-77
2023/05/04 06:51:23;;;;;;;0.00;0.00;;;;;;;11.92;68.96;100106.75;6215919;23;20001;-81
2023/05/04 06:54:00;;;;;;;0.00;0.00;;;;;;;11.95;69.04;100096.06;6218878;23;20023;-79
2023/05/04 06:56:26;;;;;;;0.00;0.00;;;;;;;12.10;68.35;100106.09;6217010;23;20503;-78
2023/05/04 06:58:51;;;;;;;0.00;0.00;;;;;;;12.11;68.01;100112.44;6216887;23;20012;-79
2023/05/04 07:01:17;;;;;;;0.00;0.00;;;;;;;12.10;67.98;100102.56;6168058;23;20438;-78
2023/05/04 07:03:43;;;;;;;0.00;0.00;;;;;;;12.26;67.85;100109.56;6161035;23;20004;-77
2023/05/04 07:06:08;;;;;;;0.00;0.00;;;;;;;12.38;67.26;100121.00;6217105;23;20000;-78
2023/05/04 07:08:34;;;;;;;0.00;0.00;;;;;;;12.48;66.92;100128.31;6218489;23;20046;-76
2023/05/04 07:11:00;;;;;;;0.00;0.00;;;;;;;12.51;66.54;100099.50;6190524;23;20043;-78
2023/05/04 07:13:25;;;;;;;0.00;0.00;;;;;;;12.64;66.27;100112.56;6214674;23;20012;-79
2023/05/04 07:15:51;;;;;;;0.00;0.00;;;;;;;12.69;65.98;100112.53;6189242;23;20012;-78
2023/05/04 07:18:16;;;;;;;0.00;0.00;;;;;;;12.67;66.13;100097.44;6187876;23;20140;-77
2023/05/04 07:20:42;;;;;;;0.00;0.00;;;;;;;12.88;65.73;100120.06;6187951;23;20012;-77
2023/05/04 07:23:07;;;;;;;0.00;0.00;;;;;;;13.02;65.78;100118.25;6210610;23;20016;-76
2023/05/04 07:25:33;;;;;;;0.00;0.00;;;;;;;13.24;65.20;100117.75;6236375;23;20016;-78
2023/05/04 07:27:58;;;;;;;0.00;0.00;;;;;;;13.40;64.51;100114.84;6208976;23;20435;-78
2023/05/04 07:30:26;;;;;;;0.00;0.00;;;;;;;13.56;63.74;100121.00;6187268;23;20008;-78
2023/05/04 07:32:51;;;;;;;0.00;0.00;;;;;;;13.71;63.19;100114.47;6213125;23;20446;-77
2023/05/04 07:35:17;;;;;;;0.00;0.00;;;;;;;13.99;62.46;100126.50;6236910;23;20008;-77
2023/05/04 07:37:43;;;;;;;0.00;0.00;;;;;;;14.09;62.05;100120.84;6212283;23;20041;-78
2023/05/04 07:40:09;;;;;;;0.00;0.00;;;;;;;14.00;61.59;100116.31;6178934;23;20063;-77
2023/05/04 07:42:34;;;;;;;0.00;0.00;;;;;;;14.02;61.54;100125.06;6213758;23;20645;-78
2023/05/04 07:45:00;;;;;;;0.00;0.00;;;;;;;14.20;61.42;100137.19;6199364;23;20008;-77
2023/05/04 07:47:33;;;;;;;0.00;0.00;;;;;;;14.45;61.19;100125.78;6212021;23;19996;-77
2023/05/04 07:53:27;;;;;;;0.00;0.00;;;;;;;15.16;58.95;100091.84;6241119;23;20011;-77
2023/05/04 07:56:24;;;;;;;;;;;;;;;;;;;;;
2023/05/04 07:58:54;;;;;;;0.00;0.00;;;;;;;16.05;57.69;100098.03;6235321;23;20515;-77
2023/05/04 08:01:35;;;;;;;;;;;;;;;;;;;;;
2023/05/04 08:04:25;;;;;;;0.00;0.00;;;;;;;16.33;55.66;100078.63;6190939;23;20064;-77
2023/05/04 08:06:52;;;;;;;0.00;0.00;;;;;;;16.47;54.36;100090.41;6217918;23;20372;-77
2023/05/04 08:09:18;;;;;;;0.00;0.00;;;;;;;16.53;53.92;100082.81;6209198;23;20461;-75
2023/05/04 08:11:48;;;;;;;0.00;0.00;;;;;;;16.73;53.86;100100.78;6186788;23;20095;-76
2023/05/04 08:14:13;;;;;;;0.00;0.00;;;;;;;16.93;53.57;100085.69;6189163;23;20054;-75
2023/05/04 08:16:38;;;;;;;0.00;0.00;;;;;;;17.05;52.91;100062.97;6183017;23;20012;-75
2023/05/04 08:19:04;;;;;;;0.00;0.00;;;;;;;17.28;52.27;100050.72;6214152;23;20004;-75
2023/05/04 08:21:30;;;;;;;0.00;0.00;;;;;;;17.33;51.77;100057.22;6208360;23;20004;-77
2023/05/04 08:23:55;;;;;;;0.00;0.00;;;;;;;17.27;51.68;100040.81;6216525;23;20008;-75
2023/05/04 08:26:21;;;;;;;0.00;0.00;;;;;;;17.40;50.88;100069.44;6186594;23;20087;-76
2023/05/04 08:28:47;;;;;;;0.00;0.00;;;;;;;17.33;51.51;100040.66;6241008;23;20023;-78
2023/05/04 08:31:12;;;;;;;0.00;0.00;;;;;;;17.28;50.93;100049.91;6215565;23;20031;-77
2023/05/04 08:33:38;;;;;;;0.00;0.00;;;;;;;17.18;51.39;100037.19;6183062;23;20429;-77
2023/05/04 08:36:05;;;;;;;0.00;0.00;;;;;;;17.32;51.51;100048.13;6189967;23;20008;-76
2023/05/04 08:38:31;;;;;;;0.00;0.00;;;;;;;17.55;50.79;100036.97;6209624;23;20004;-76
2023/05/04 08:40:56;;;;;;;0.00;0.00;;;;;;;17.89;50.36;100047.25;6208172;22;20399;-78
2023/05/04 08:43:22;;;;;;;0.00;0.00;;;;;;;18.26;49.72;100031.16;6188061;22;20085;-77
2023/05/04 08:45:49;;;;;;;0.00;0.00;;;;;;;18.43;48.99;100019.25;6218193;22;20492;-77
2023/05/04 08:48:16;;;;;;;0.00;0.00;;;;;;;18.38;47.91;100015.84;6220632;22;20004;-77
2023/05/04 08:50:43;;;;;;;0.00;0.00;;;;;;;18.41;48.58;100010.47;6241918;22;20090;-77
2023/05/04 08:53:11;;;;;;;0.00;0.00;;;;;;;18.64;48.61;100002.72;6269089;22;20000;-77
2023/05/04 08:55:38;;;;;;;0.00;0.00;;;;;;;18.96;47.93;100000.53;6214945;22;21157;-77
2023/05/04 08:58:08;;;;;;;0.00;0.00;;;;;;;19.10;47.23;100010.56;6272255;22;20407;-77
2023/05/04 09:00:36;;;;;;;0.00;0.00;;;;;;;19.52;47.25;100030.06;6237669;22;19996;-76
2023/05/04 09:03:03;;;;;;;0.00;0.00;;;;;;;20.19;46.24;100035.78;6220971;22;20011;-78
2023/05/04 09:05:29;;;;;;;0.00;0.00;;;;;;;20.69;44.92;100037.59;6268680;22;20010;-77
2023/05/04 09:07:55;;;;;;;0.00;0.00;;;;;;;20.72;44.00;100039.69;6269135;22;20070;-78
2023/05/04 09:10:20;;;;;;;0.00;0.00;;;;;;;20.58;43.94;100031.63;6240468;22;20003;-76
2023/05/04 09:12:46;;;;;;;0.00;0.00;;;;;;;20.47;43.68;100018.53;6266171;22;20327;-79
2023/05/04 09:15:31;;;;;;;0.00;0.00;;;;;;;20.70;44.03;100016.97;6219203;22;20008;-80
2023/05/04 09:18:00;;;;;;;0.00;0.00;;;;;;;21.08;43.15;100013.13;6239130;22;20004;-79
2023/05/04 09:20:48;;;;;;;0.00;0.00;;;;;;;21.44;41.97;99994.75;6246832;22;20079;-77
2023/05/04 09:23:19;;;;;;;0.00;0.00;;;;;;;21.66;41.94;99984.31;6238283;22;20012;-76
2023/05/04 09:25:52;;;;;;;0.00;0.00;;;;;;;22.31;41.16;100017.59;6244564;22;20007;-78
2023/05/04 09:28:20;;;;;;;0.00;0.00;;;;;;;22.94;39.87;100041.19;6213001;22;20077;-76
2023/05/04 09:30:47;;;;;;;0.00;0.00;;;;;;;22.82;39.86;100042.06;6238585;22;20053;-77
2023/05/04 09:33:14;;;;;;;0.00;0.00;;;;;;;22.98;39.31;100056.03;6268501;22;20022;-77
2023/05/04 09:35:43;;;;;;;0.00;0.00;;;;;;;24.03;37.81;100055.69;6245385;22;20027;-77
2023/05/04 09:38:09;;;;;;;0.00;0.00;;;;;;;25.03;35.63;100045.66;6241816;22;20003;-76
2023/05/04 09:40:41;;;;;;;0.00;0.00;;;;;;;26.59;34.17;100052.22;6270556;22;20102;-76
2023/05/04 09:43:08;;;;;;;0.00;0.00;;;;;;;27.87;32.19;100013.53;6244048;22;20034;-77
2023/05/04 09:45:41;;;;;;;0.00;0.00;;;;;;;29.05;30.23;100023.50;6235425;22;20069;-77
2023/05/04 09:48:20;;;;;;;0.00;0.00;;;;;;;29.57;28.71;100025.88;6244550;22;20003;-78
2023/05/04 09:50:53;;;;;;;0.00;0.00;;;;;;;29.72;28.42;100021.81;6215565;22;20077;-77
2023/05/04 09:53:30;;;;;;;0.00;0.00;;;;;;;29.71;28.33;100010.94;6246194;22;20018;-78
2023/05/04 09:56:10;;;;;;;0.00;0.00;;;;;;;29.61;28.24;100009.75;6270717;22;20057;-76
2023/05/04 09:58:38;;;;;;;0.00;0.00;;;;;;;28.60;29.44;100015.41;6212688;22;20427;-76
2023/05/04 10:01:05;;;;;;;0.00;0.00;;;;;;;29.05;29.01;100001.78;6241774;22;20008;-78
2023/05/04 10:03:31;;;;;;;0.00;0.00;;;;;;;30.63;27.32;100019.41;6244332;22;20008;-77
2023/05/04 10:06:01;;;;;;;0.00;0.00;;;;;;;31.75;24.88;100016.44;6236655;22;20092;-76
2023/05/04 10:08:27;;;;;;;0.00;0.00;;;;;;;29.07;26.50;100015.44;6242218;22;20349;-77
2023/05/04 10:11:00;;;;;;;0.00;0.00;;;;;;;29.37;28.11;100003.78;6216433;22;20019;-75
2023/05/04 10:13:26;;;;;;;0.00;0.00;;;;;;;33.43;24.77;99991.72;6244475;22;20004;-77
2023/05/04 10:16:26;;;;;;;0.00;0.00;;;;;;;36.07;20.94;100000.38;6222162;22;20016;-76
2023/05/04 10:19:09;;;;;;;0.00;0.00;;;;;;;39.05;18.67;99983.16;6246809;22;20034;-77
2023/05/04 10:22:03;;;;;;;0.00;0.00;;;;;;;41.47;15.94;100021.25;6241953;22;20091;-78
2023/05/04 10:24:47;;;;;;;0.00;0.00;;;;;;;42.31;14.93;100031.91;6242914;22;20126;-77
2023/05/04 10:27:16;;;;;;;0.00;0.00;;;;;;;40.74;14.76;100013.88;6244611;22;20003;-76
2023/05/04 10:29:49;;;;;;;0.00;0.00;;;;;;;39.19;16.79;99975.25;6269477;22;20336;-77
2023/05/04 10:32:21;;;;;;;0.00;0.00;;;;;;;39.27;17.28;99953.66;6245853;22;20086;-76
2023/05/04 10:34:47;;;;;;;0.00;0.00;;;;;;;38.64;17.64;99981.59;6213685;22;20012;-76
2023/05/04 10:37:20;;;;;;;0.00;0.00;;;;;;;36.02;19.05;99975.38;6244658;22;20003;-77
2023/05/04 10:39:54;;;;;;;0.00;0.00;;;;;;;33.62;21.11;99970.28;6245696;22;20019;-77
2023/05/04 10:42:20;;;;;;;0.00;0.00;;;;;;;31.76;22.77;99978.47;6246437;22;20012;-77
2023/05/04 10:44:54;;;;;;;0.00;0.00;;;;;;;30.07;24.30;99958.09;6245897;22;21284;-76
2023/05/04 10:47:34;;;;;;;0.00;0.00;;;;;;;28.67;26.23;99959.19;6242915;22;20003;-76
2023/05/04 10:50:03;;;;;;;0.00;0.00;;;;;;;28.63;27.35;99964.00;6243094;22;20013;-76
2023/05/04 10:52:52;;;;;;;0.00;0.00;;;;;;;28.43;26.73;99945.88;6275215;22;20079;-75
2023/05/04 10:55:19;;;;;;;0.00;0.00;;;;;;;28.80;26.62;99923.03;6272646;22;20457;-78
2023/05/04 10:57:55;;;;;;;0.00;0.00;;;;;;;28.93;26.80;99940.31;6278030;22;20341;-76
2023/05/04 11:00:38;;;;;;;0.00;0.00;;;;;;;27.90;27.38;99950.94;6272147;22;20038;-76
2023/05/04 11:03:11;;;;;;;0.00;0.00;;;;;;;26.89;28.75;99939.13;6274027;22;20008;-76
2023/05/04 11:05:51;;;;;;;0.00;0.00;;;;;;;26.99;29.20;99938.41;6219933;22;20000;-76
2023/05/04 11:08:23;;;;;;;0.00;0.00;;;;;;;28.90;28.21;99944.72;6246382;22;20093;-75
2023/05/04 11:11:10;;;;;;;0.00;0.00;;;;;;;29.35;26.91;99923.75;6270332;22;20004;-75
2023/05/04 11:13:50;;;;;;;0.00;0.00;;;;;;;28.99;26.91;99906.94;6244957;22;20089;-74
2023/05/04 11:16:22;;;;;;;0.00;0.00;;;;;;;28.48;26.65;99883.63;6241376;22;20000;-74
2023/05/04 11:18:50;;;;;;;0.00;0.00;;;;;;;27.70;28.04;99880.28;6223917;22;20014;-74
2023/05/04 11:22:07;;;;;;;;;;;;;;;;;;;;;
2023/05/04 11:25:18;;;;;;;;;;;;;;;;;;;;;
2023/05/04 11:28:08;;;;;;;0.00;0.00;;;;;;;25.07;31.46;99866.69;6272569;22;20075;-76
2023/05/04 11:30:46;;;;;;;;;;;;;;;;;;;;;
2023/05/04 11:33:32;;;;;;;0.00;0.00;;;;;;;24.44;33.04;99880.06;6267010;22;20502;-76
2023/05/04 11:36:00;;;;;;;0.00;0.00;;;;;;;24.50;32.88;99833.91;6223356;22;19999;-75
2023/05/04 11:38:29;;;;;;;0.00;0.00;;;;;;;24.74;32.82;99857.84;6239528;22;20717;-76
2023/05/04 11:41:06;;;;;;;0.00;0.00;;;;;;;24.51;32.97;99838.28;6272476;22;20016;-76
2023/05/04 11:46:26;;;;;;;0.00;0.00;;;;;;;22.84;34.98;99838.25;6248448;22;20026;-74
2023/05/04 11:48:52;;;;;;;0.00;0.00;;;;;;;21.92;36.59;99814.09;6238970;22;20011;-76